Time;durP1;ratioP1;P1;durP2;ratioP2;P2;SDS_P1;SDS_P2;PMS_P1;PMS_P2;Temp;Humidity;BMP_temperature;BMP_pressure;BME280_temperature;BME280_humidity;BME280_pressure;Samples;Min_cycle;Max_cycle;Signal;HPM_P1;HPM_P2
2021/09/16 00:01:07;;;;;;;8.80;8.00;;;17.20;72.00;;;;;;5026859;28;20421;-73
2021/09/16 00:03:33;;;;;;;8.85;8.05;;;17.20;72.10;;;;;;5026202;28;20037;-73
2021/09/16 00:05:59;;;;;;;10.00;8.82;;;17.20;72.10;;;;;;5027598;28;20033;-72
2021/09/16 00:08:25;;;;;;;8.25;7.55;;;17.20;72.10;;;;;;5027248;28;20143;-73
2021/09/16 00:10:51;;;;;;;9.30;8.40;;;17.10;72.00;;;;;;5017244;28;20033;-73
2021/09/16 00:13:17;;;;;;;8.55;7.68;;;17.10;72.10;;;;;;5025868;28;20037;-72
2021/09/16 00:15:43;;;;;;;9.30;8.45;;;17.10;72.10;;;;;;5027161;28;20036;-72
2021/09/16 00:18:09;;;;;;;9.18;8.27;;;17.00;72.00;;;;;;5027440;28;20044;-72
2021/09/16 00:20:35;;;;;;;9.50;8.50;;;17.10;72.20;;;;;;5027067;28;20037;-72
2021/09/16 00:23:01;;;;;;;10.15;8.35;;;17.00;72.10;;;;;;5025705;28;20033;-73
2021/09/16 00:25:27;;;;;;;9.40;8.60;;;17.00;72.10;;;;;;5026671;28;20072;-72
2021/09/16 00:27:53;;;;;;;9.27;8.38;;;17.00;72.20;;;;;;5026763;28;20167;-72
2021/09/16 00:30:19;;;;;;;8.88;8.00;;;17.00;72.20;;;;;;5026845;28;20555;-72
2021/09/16 00:32:45;;;;;;;8.77;7.78;;;17.00;72.20;;;;;;5026960;28;20217;-72
2021/09/16 00:35:11;;;;;;;9.00;8.13;;;17.00;72.30;;;;;;5025550;28;20120;-72
2021/09/16 00:37:37;;;;;;;9.35;8.45;;;17.00;72.30;;;;;;5026916;28;20144;-73
2021/09/16 00:40:06;;;;;;;9.05;8.25;;;16.90;72.20;;;;;;5025515;28;20494;-73
2021/09/16 00:42:32;;;;;;;8.75;7.93;;;16.90;72.30;;;;;;5017592;28;20036;-73
2021/09/16 00:44:58;;;;;;;8.73;7.82;;;16.90;72.30;;;;;;5026780;28;20060;-73
2021/09/16 00:47:25;;;;;;;9.55;8.75;;;16.80;72.10;;;;;;5026721;28;20056;-72
2021/09/16 00:49:50;;;;;;;9.98;7.97;;;16.80;72.20;;;;;;5026132;28;20484;-73
2021/09/16 00:52:17;;;;;;;8.85;7.95;;;16.80;72.20;;;;;;5025611;28;20092;-73
2021/09/16 00:54:46;;;;;;;8.60;7.85;;;16.80;72.30;;;;;;5026233;28;20116;-73
2021/09/16 00:57:16;;;;;;;8.80;8.00;;;16.80;72.30;;;;;;5026406;28;20530;-73
2021/09/16 00:59:44;;;;;;;9.35;8.45;;;16.80;72.40;;;;;;5025144;28;20123;-72
2021/09/16 01:02:11;;;;;;;8.68;7.78;;;16.80;72.40;;;;;;5026604;28;20107;-72
2021/09/16 01:04:39;;;;;;;8.80;8.00;;;16.70;72.30;;;;;;5025150;28;20029;-73
2021/09/16 01:07:05;;;;;;;8.85;7.95;;;16.70;72.40;;;;;;5026437;28;20053;-73
2021/09/16 01:09:32;;;;;;;9.20;8.30;;;16.70;72.40;;;;;;5025922;28;20380;-72
2021/09/16 01:11:58;;;;;;;9.73;8.73;;;16.70;72.50;;;;;;5017353;28;20517;-73
2021/09/16 01:14:26;;;;;;;9.82;8.93;;;16.70;72.50;;;;;;5026171;28;20148;-72
2021/09/16 01:16:52;;;;;;;9.57;8.68;;;16.70;72.50;;;;;;5026881;28;20492;-74
2021/09/16 01:19:19;;;;;;;8.43;7.63;;;16.70;72.60;;;;;;5024697;28;20041;-74
2021/09/16 01:21:46;;;;;;;7.93;7.22;;;16.70;72.70;;;;;;5026327;28;20044;-74
2021/09/16 01:24:13;;;;;;;8.98;8.18;;;16.70;72.70;;;;;;5026323;28;20030;-74
2021/09/16 01:26:42;;;;;;;10.93;8.73;;;16.70;72.70;;;;;;5026192;28;20043;-75
2021/09/16 01:29:09;;;;;;;10.15;9.10;;;16.70;72.80;;;;;;5026470;28;20048;-74
2021/09/16 01:31:47;;;;;;;9.20;8.27;;;16.70;72.80;;;;;;5039811;22;20512;-77
2021/09/16 01:34:16;;;;;;;8.88;7.70;;;16.70;72.90;;;;;;5016249;28;20475;-75
2021/09/16 01:36:43;;;;;;;8.88;7.97;;;16.70;72.80;;;;;;4999532;28;20088;-76
2021/09/16 01:39:12;;;;;;;10.02;8.13;;;16.70;72.80;;;;;;4989984;28;20065;-79
2021/09/16 01:41:38;;;;;;;8.68;7.75;;;16.70;72.90;;;;;;4980886;28;20485;-76
2021/09/16 01:44:05;;;;;;;9.35;8.40;;;16.70;72.90;;;;;;5006580;28;20037;-76
2021/09/16 01:46:31;;;;;;;8.98;8.18;;;16.70;72.90;;;;;;5015347;23;20083;-80
2021/09/16 01:48:59;;;;;;;9.23;7.65;;;16.70;72.90;;;;;;5013131;28;20045;-83
2021/09/16 01:51:25;;;;;;;9.93;8.65;;;16.70;72.90;;;;;;5028866;28;20029;-81
2021/09/16 01:53:51;;;;;;;9.13;8.15;;;16.70;72.90;;;;;;5030568;28;20047;-82
2021/09/16 01:56:17;;;;;;;8.52;7.82;;;16.70;72.90;;;;;;5012693;28;20545;-80
2021/09/16 01:58:43;;;;;;;8.77;7.97;;;16.70;73.00;;;;;;5030073;28;20129;-80
2021/09/16 02:01:09;;;;;;;9.02;8.13;;;16.60;72.80;;;;;;5011791;28;20030;-82
2021/09/16 02:03:35;;;;;;;9.07;8.20;;;16.60;72.80;;;;;;5009418;28;20065;-81
2021/09/16 02:06:01;;;;;;;9.52;8.63;;;16.60;72.90;;;;;;5009166;28;20465;-80
2021/09/16 02:08:27;;;;;;;10.13;8.75;;;16.60;72.90;;;;;;5009186;28;20073;-81
2021/09/16 02:10:53;;;;;;;8.48;7.78;;;16.60;72.90;;;;;;4994164;28;20025;-79
2021/09/16 02:13:19;;;;;;;9.20;8.05;;;16.60;72.90;;;;;;5004392;28;20064;-82
2021/09/16 02:15:45;;;;;;;9.15;8.32;;;16.50;72.80;;;;;;5013935;28;20129;-80
2021/09/16 02:18:11;;;;;;;8.80;7.88;;;16.50;72.80;;;;;;5024249;28;20068;-80
2021/09/16 02:20:38;;;;;;;8.00;7.20;;;16.50;72.80;;;;;;5015697;28;20131;-80
2021/09/16 02:23:04;;;;;;;8.30;7.45;;;16.50;72.90;;;;;;5033588;28;20086;-78
2021/09/16 02:25:30;;;;;;;9.07;8.27;;;16.50;73.00;;;;;;5016131;28;20120;-79
2021/09/16 02:27:56;;;;;;;9.52;8.63;;;16.50;73.00;;;;;;5015762;28;20113;-81
2021/09/16 02:30:22;;;;;;;9.93;8.88;;;16.40;72.90;;;;;;5033756;28;20045;-78
2021/09/16 02:32:47;;;;;;;8.43;7.63;;;16.40;72.90;;;;;;5015655;28;20411;-78
2021/09/16 02:35:14;;;;;;;8.93;8.05;;;16.40;73.00;;;;;;5015764;28;20061;-78
2021/09/16 02:37:40;;;;;;;9.57;8.55;;;16.40;73.00;;;;;;5031990;28;20025;-79
2021/09/16 02:40:08;;;;;;;9.88;8.27;;;16.30;72.80;;;;;;5015535;28;20040;-76
2021/09/16 02:42:34;;;;;;;10.70;9.35;;;16.30;72.90;;;;;;4998861;28;20496;-78
2021/09/16 02:45:00;;;;;;;8.13;7.32;;;16.30;72.90;;;;;;5003743;28;20334;-78
2021/09/16 02:47:26;;;;;;;8.32;7.50;;;16.30;73.00;;;;;;5013139;28;20096;-79
2021/09/16 02:49:52;;;;;;;8.52;7.72;;;16.20;72.80;;;;;;5013024;28;20096;-79
2021/09/16 02:52:18;;;;;;;10.20;7.97;;;16.20;72.90;;;;;;4995633;28;20045;-77
2021/09/16 02:54:44;;;;;;;9.10;8.20;;;16.20;73.00;;;;;;5013285;28;20054;-79
2021/09/16 02:57:10;;;;;;;9.45;8.55;;;16.20;73.00;;;;;;4995385;28;20026;-79
2021/09/16 02:59:36;;;;;;;8.90;8.00;;;16.20;73.10;;;;;;4995090;28;20076;-79
2021/09/16 03:02:02;;;;;;;8.05;7.30;;;16.10;72.90;;;;;;5013096;28;20026;-79
2021/09/16 03:04:28;;;;;;;8.57;7.78;;;16.10;72.90;;;;;;4995496;28;20064;-79
2021/09/16 03:06:54;;;;;;;9.25;8.35;;;16.10;72.90;;;;;;4979388;28;20057;-78
2021/09/16 03:09:21;;;;;;;10.48;8.82;;;16.10;73.00;;;;;;4995093;28;20127;-79
2021/09/16 03:11:47;;;;;;;8.80;7.95;;;16.10;73.00;;;;;;5012161;28;20038;-79
2021/09/16 03:14:13;;;;;;;9.45;8.45;;;16.00;72.90;;;;;;4979335;28;20033;-79
2021/09/16 03:16:39;;;;;;;8.80;8.00;;;16.00;72.90;;;;;;5003693;28;20026;-80
2021/09/16 03:19:05;;;;;;;8.65;7.75;;;16.00;72.90;;;;;;5011823;28;20127;-78
2021/09/16 03:21:31;;;;;;;8.65;7.68;;;16.00;73.00;;;;;;5011295;28;20109;-79
2021/09/16 03:23:57;;;;;;;9.02;8.23;;;15.90;72.90;;;;;;4995088;28;20086;-78
2021/09/16 03:26:23;;;;;;;8.48;7.57;;;15.90;72.90;;;;;;4995106;28;20040;-81
2021/09/16 03:28:49;;;;;;;9.88;8.88;;;15.90;73.00;;;;;;5012636;28;20038;-79
2021/09/16 03:31:15;;;;;;;8.50;7.70;;;15.90;73.00;;;;;;4995492;28;20026;-79
2021/09/16 03:33:41;;;;;;;9.63;8.23;;;15.90;73.00;;;;;;5028382;28;20028;-81
2021/09/16 03:36:07;;;;;;;8.73;7.88;;;15.90;73.10;;;;;;5018862;28;20068;-79
2021/09/16 03:38:33;;;;;;;8.35;7.55;;;15.80;72.90;;;;;;5014198;28;20029;-80
2021/09/16 03:40:59;;;;;;;12.18;9.20;;;15.80;73.00;;;;;;4992683;28;20046;-79
2021/09/16 03:43:25;;;;;;;9.00;8.13;;;15.70;72.90;;;;;;4999702;28;20061;-80
2021/09/16 03:45:51;;;;;;;9.05;8.25;;;15.70;72.90;;;;;;4987278;28;20406;-80
2021/09/16 03:48:17;;;;;;;8.65;7.78;;;15.70;73.00;;;;;;5011506;28;20033;-80
2021/09/16 03:50:43;;;;;;;9.13;7.93;;;15.70;73.00;;;;;;5012599;28;20125;-79
2021/09/16 03:53:09;;;;;;;9.55;8.55;;;15.70;73.10;;;;;;4978242;28;20140;-78
2021/09/16 03:55:35;;;;;;;8.70;7.82;;;15.70;73.10;;;;;;4994554;28;20053;-77
2021/09/16 03:58:01;;;;;;;9.32;8.52;;;15.70;73.10;;;;;;4978294;28;20087;-79
2021/09/16 04:00:27;;;;;;;10.07;7.82;;;15.60;73.00;;;;;;5010623;28;20030;-80
2021/09/16 04:02:53;;;;;;;8.98;8.15;;;15.60;73.00;;;;;;4978093;28;20022;-80
2021/09/16 04:05:19;;;;;;;9.93;8.05;;;15.60;73.00;;;;;;5011338;28;20108;-79
2021/09/16 04:07:45;;;;;;;9.43;8.40;;;15.60;73.00;;;;;;4977644;28;20083;-79
2021/09/16 04:10:11;;;;;;;10.07;7.82;;;15.60;73.10;;;;;;5010314;28;20049;-79
2021/09/16 04:12:37;;;;;;;9.13;8.25;;;15.50;73.00;;;;;;4993872;28;20525;-79
2021/09/16 04:15:05;;;;;;;9.50;8.27;;;15.50;73.00;;;;;;5011961;28;20034;-79
2021/09/16 04:17:31;;;;;;;8.57;7.78;;;15.50;73.10;;;;;;4985393;28;20033;-79
2021/09/16 04:19:57;;;;;;;8.82;8.02;;;15.40;72.90;;;;;;5011355;28;20053;-79
2021/09/16 04:22:23;;;;;;;9.07;8.25;;;15.50;73.10;;;;;;4993992;28;20497;-78
2021/09/16 04:24:49;;;;;;;8.88;8.05;;;15.40;73.00;;;;;;4994128;28;20121;-80
2021/09/16 04:27:16;;;;;;;8.63;7.82;;;15.40;73.10;;;;;;4993535;28;20152;-80
2021/09/16 04:29:42;;;;;;;10.95;8.48;;;15.40;73.10;;;;;;4993852;28;20042;-80
2021/09/16 04:32:09;;;;;;;10.30;8.85;;;15.40;73.10;;;;;;4993478;28;20052;-79
2021/09/16 04:34:35;;;;;;;9.25;8.35;;;15.40;73.20;;;;;;5010841;28;20049;-80
2021/09/16 04:37:01;;;;;;;10.13;9.23;;;15.40;73.20;;;;;;5010946;28;20022;-78
2021/09/16 04:39:27;;;;;;;9.00;8.13;;;15.40;73.20;;;;;;4993020;28;20442;-80
2021/09/16 04:41:53;;;;;;;9.43;8.50;;;15.40;73.30;;;;;;4993434;28;20054;-80
2021/09/16 04:44:19;;;;;;;9.25;8.35;;;15.30;73.10;;;;;;4993645;28;20116;-81
2021/09/16 04:46:45;;;;;;;9.15;8.20;;;15.30;73.20;;;;;;4992907;28;20041;-80
2021/09/16 04:49:11;;;;;;;9.30;8.40;;;15.30;73.20;;;;;;4978948;28;20446;-79
2021/09/16 04:51:37;;;;;;;9.05;8.15;;;15.30;73.30;;;;;;4955113;28;20117;-79
2021/09/16 04:54:03;;;;;;;8.40;7.57;;;15.30;73.30;;;;;;4990409;28;20099;-78
2021/09/16 04:56:29;;;;;;;9.23;8.43;;;15.30;73.30;;;;;;4988145;28;20033;-79
2021/09/16 04:58:54;;;;;;;9.45;8.45;;;15.30;73.30;;;;;;4986158;28;20030;-79
2021/09/16 05:01:20;;;;;;;8.75;7.82;;;15.40;73.50;;;;;;5008744;28;20102;-81
2021/09/16 05:03:46;;;;;;;9.32;8.45;;;15.40;73.50;;;;;;4999242;28;20025;-79
2021/09/16 05:06:12;;;;;;;9.20;8.30;;;15.40;73.60;;;;;;4987034;28;20030;-80
2021/09/16 05:08:40;;;;;;;8.90;8.00;;;15.40;73.60;;;;;;4985964;28;20140;-80
2021/09/16 05:11:10;;;;;;;8.60;7.70;;;15.40;73.60;;;;;;4969392;28;20033;-80
2021/09/16 05:13:36;;;;;;;9.00;8.20;;;15.40;73.60;;;;;;4985271;28;20026;-79
2021/09/16 05:16:02;;;;;;;9.35;8.55;;;15.40;73.50;;;;;;4987450;28;20037;-80
2021/09/16 05:18:28;;;;;;;10.23;9.02;;;15.40;73.50;;;;;;4990891;28;20030;-81
2021/09/16 05:20:54;;;;;;;10.27;9.32;;;15.40;73.50;;;;;;4980755;28;20040;-80
2021/09/16 05:23:20;;;;;;;9.05;8.25;;;15.40;73.50;;;;;;4944656;28;20034;-80
2021/09/16 05:25:46;;;;;;;8.15;7.35;;;15.40;73.50;;;;;;4986437;28;20084;-81
2021/09/16 05:28:12;;;;;;;9.77;8.77;;;15.40;73.50;;;;;;4999621;28;20040;-81
2021/09/16 05:30:38;;;;;;;9.95;8.93;;;15.40;73.50;;;;;;4974798;28;20031;-81
2021/09/16 05:33:09;;;;;;;9.57;8.68;;;15.40;73.50;;;;;;4986502;28;20402;-80
2021/09/16 05:35:36;;;;;;;9.05;8.20;;;15.30;73.40;;;;;;5017287;28;20065;-80
2021/09/16 05:38:03;;;;;;;10.25;8.90;;;15.40;73.60;;;;;;4978055;28;20125;-81
2021/09/16 05:40:30;;;;;;;8.77;7.97;;;15.30;73.40;;;;;;4980431;28;20037;-80
2021/09/16 05:42:56;;;;;;;10.15;9.02;;;15.30;73.40;;;;;;4986998;28;20030;-80
2021/09/16 05:45:22;;;;;;;10.65;8.90;;;15.30;73.40;;;;;;4998339;28;20030;-80
2021/09/16 05:47:48;;;;;;;10.15;9.05;;;15.30;73.40;;;;;;4995196;28;20096;-79
2021/09/16 05:50:14;;;;;;;11.35;10.15;;;15.30;73.60;;;;;;4966949;28;20042;-81
2021/09/16 05:52:40;;;;;;;16.05;11.50;;;15.30;73.90;;;;;;4947269;28;20289;-80
2021/09/16 05:55:06;;;;;;;11.02;9.90;;;15.30;74.00;;;;;;4989148;28;20030;-79
2021/09/16 05:57:32;;;;;;;13.43;12.13;;;15.30;74.00;;;;;;4993648;28;20046;-83
2021/09/16 05:59:58;;;;;;;15.93;14.32;;;15.30;74.10;;;;;;4972499;28;20525;-83
2021/09/16 06:02:24;;;;;;;17.80;15.85;;;15.30;74.20;;;;;;4976061;28;20113;-82
2021/09/16 06:04:50;;;;;;;19.63;17.60;;;15.20;74.10;;;;;;5008638;28;20034;-81
2021/09/16 06:07:16;;;;;;;19.65;16.60;;;15.20;74.20;;;;;;5008244;28;20030;-80
2021/09/16 06:09:42;;;;;;;18.67;16.60;;;15.30;74.40;;;;;;4989532;28;20049;-81
2021/09/16 06:12:08;;;;;;;22.27;17.17;;;15.20;74.30;;;;;;4971793;28;20026;-81
2021/09/16 06:14:35;;;;;;;20.55;16.30;;;15.20;74.30;;;;;;4996810;28;20038;-81
2021/09/16 06:17:01;;;;;;;20.75;16.80;;;15.20;74.50;;;;;;5018976;28;20124;-80
2021/09/16 06:19:28;;;;;;;19.60;15.90;;;15.20;74.70;;;;;;4985872;28;20039;-80
2021/09/16 06:21:54;;;;;;;18.88;16.27;;;15.10;74.70;;;;;;5023409;28;20106;-84
2021/09/16 06:24:20;;;;;;;21.25;17.63;;;15.20;75.00;;;;;;4991291;28;20064;-80
2021/09/16 06:26:46;;;;;;;19.13;16.15;;;15.20;75.00;;;;;;4975508;28;20037;-81
2021/09/16 06:29:12;;;;;;;18.63;15.95;;;15.10;74.90;;;;;;5012256;28;20046;-81
2021/09/16 06:31:38;;;;;;;18.65;16.17;;;15.20;75.10;;;;;;5007661;28;20116;-81
2021/09/16 06:34:05;;;;;;;19.10;15.93;;;15.20;75.10;;;;;;5009078;28;20345;-81
2021/09/16 06:36:31;;;;;;;18.02;14.95;;;15.20;75.10;;;;;;5016818;28;20120;-82
2021/09/16 06:38:57;;;;;;;17.70;14.15;;;15.20;75.10;;;;;;4996666;28;20109;-81
2021/09/16 06:41:22;;;;;;;17.95;16.05;;;15.20;75.10;;;;;;5013521;28;20018;-81
2021/09/16 06:43:49;;;;;;;16.20;14.48;;;15.20;75.10;;;;;;4996905;28;20346;-82
2021/09/16 06:46:16;;;;;;;17.40;15.50;;;15.30;75.20;;;;;;5009976;28;20250;-81
2021/09/16 06:48:42;;;;;;;16.52;14.68;;;15.20;75.00;;;;;;5007772;28;20112;-80
2021/09/16 06:51:08;;;;;;;16.20;13.80;;;15.30;75.10;;;;;;4991101;28;20258;-80
2021/09/16 06:53:34;;;;;;;17.17;15.05;;;15.30;75.10;;;;;;4989780;28;20038;-80
2021/09/16 06:56:01;;;;;;;15.30;13.70;;;15.40;75.30;;;;;;4970739;28;20053;-80
2021/09/16 06:58:27;;;;;;;15.05;13.45;;;15.50;75.40;;;;;;4996766;28;20093;-81
2021/09/16 07:00:53;;;;;;;17.98;14.27;;;15.50;75.20;;;;;;5007569;28;20098;-80
2021/09/16 07:03:19;;;;;;;15.68;13.10;;;15.60;75.30;;;;;;5005818;28;20273;-80
2021/09/16 07:05:45;;;;;;;15.80;13.95;;;15.70;75.40;;;;;;5006147;28;20054;-80
2021/09/16 07:08:11;;;;;;;13.25;11.77;;;15.80;75.40;;;;;;4981828;28;20038;-80
2021/09/16 07:10:37;;;;;;;14.82;13.15;;;15.90;75.50;;;;;;4987952;28;20035;-79
2021/09/16 07:13:03;;;;;;;14.60;13.07;;;16.00;75.50;;;;;;4991291;28;20454;-79
2021/09/16 07:15:29;;;;;;;15.75;13.25;;;16.10;75.50;;;;;;4995667;28;20449;-80
2021/09/16 07:17:55;;;;;;;14.40;12.68;;;16.20;75.70;;;;;;4986323;28;20072;-80
2021/09/16 07:20:21;;;;;;;16.00;13.60;;;16.30;75.70;;;;;;5011439;28;20558;-78
2021/09/16 07:22:47;;;;;;;14.15;12.68;;;16.40;75.70;;;;;;5001503;28;20490;-78
2021/09/16 07:25:13;;;;;;;15.45;13.85;;;16.40;75.60;;;;;;4988972;28;20248;-83
2021/09/16 07:27:40;;;;;;;16.05;13.55;;;16.50;75.60;;;;;;4990428;28;20517;-84
2021/09/16 07:30:07;;;;;;;14.10;12.68;;;16.60;75.60;;;;;;4998702;28;20129;-84
2021/09/16 07:32:33;;;;;;;13.70;12.15;;;16.70;75.70;;;;;;4987710;28;20026;-84
2021/09/16 07:34:59;;;;;;;15.55;13.30;;;16.70;76.10;;;;;;4989513;28;20039;-84
2021/09/16 07:37:26;;;;;;;13.80;12.38;;;16.80;75.70;;;;;;4989684;28;20084;-83
2021/09/16 07:39:52;;;;;;;14.05;12.38;;;16.90;75.80;;;;;;5008405;28;20065;-84
2021/09/16 07:42:18;;;;;;;15.05;13.57;;;17.00;75.80;;;;;;5008218;28;20034;-83
2021/09/16 07:44:44;;;;;;;12.95;11.52;;;17.10;75.90;;;;;;5008335;28;20037;-80
2021/09/16 07:47:10;;;;;;;13.75;12.35;;;17.20;76.40;;;;;;5008092;28;20104;-81
2021/09/16 07:49:36;;;;;;;14.68;13.18;;;17.30;75.90;;;;;;5007463;28;20038;-81
2021/09/16 07:52:02;;;;;;;15.85;12.60;;;17.40;75.90;;;;;;4995529;28;20036;-83
2021/09/16 07:54:28;;;;;;;14.93;13.43;;;17.50;75.80;;;;;;4986878;28;20496;-83
2021/09/16 07:56:54;;;;;;;12.00;10.80;;;17.60;75.80;;;;;;4986915;28;20027;-82
2021/09/16 07:59:21;;;;;;;13.43;12.07;;;17.70;75.80;;;;;;4987898;28;20038;-82
2021/09/16 08:01:47;;;;;;;13.38;12.05;;;17.80;75.90;;;;;;4988096;28;20026;-85
2021/09/16 08:04:13;;;;;;;13.18;11.40;;;17.90;75.90;;;;;;4988206;28;20030;-84
2021/09/16 08:06:39;;;;;;;11.73;10.48;;;18.00;76.00;;;;;;4970590;28;20592;-83
2021/09/16 08:09:05;;;;;;;12.77;10.05;;;18.10;76.00;;;;;;4982736;28;20044;-82
2021/09/16 08:11:31;;;;;;;11.40;10.30;;;18.20;76.00;;;;;;5003791;28;20030;-83
2021/09/16 08:13:57;;;;;;;10.68;9.68;;;18.30;76.00;;;;;;4988561;28;20037;-84
2021/09/16 08:16:23;;;;;;;10.38;9.38;;;18.30;75.80;;;;;;5006885;28;21194;-84
2021/09/16 08:18:49;;;;;;;10.05;9.05;;;18.40;75.90;;;;;;4989150;28;20057;-84
2021/09/16 08:21:16;;;;;;;10.50;8.77;;;18.50;75.90;;;;;;4989225;28;20139;-85
2021/09/16 08:23:44;;;;;;;11.45;8.27;;;18.50;75.80;;;;;;4970442;28;20058;-85
2021/09/16 08:26:10;;;;;;;10.05;6.15;;;18.60;76.10;;;;;;4988483;28;20034;-85
2021/09/16 08:28:36;;;;;;;9.65;7.53;;;18.60;76.20;;;;;;4979308;28;20077;-83
2021/09/16 08:31:03;;;;;;;7.88;6.70;;;18.60;76.50;;;;;;4985112;28;20505;-84
2021/09/16 08:33:30;;;;;;;7.53;6.60;;;18.60;76.70;;;;;;4983158;28;20485;-84
2021/09/16 08:35:56;;;;;;;7.13;6.43;;;18.80;77.10;;;;;;5007617;28;20038;-85
2021/09/16 08:38:22;;;;;;;7.60;6.85;;;18.90;77.20;;;;;;4973445;28;20036;-84
2021/09/16 08:40:48;;;;;;;8.18;7.22;;;19.00;77.20;;;;;;5006269;28;20180;-84
2021/09/16 08:43:14;;;;;;;6.63;6.03;;;19.10;77.30;;;;;;4995968;28;20036;-84
2021/09/16 08:45:40;;;;;;;9.25;6.47;;;19.20;77.30;;;;;;5006958;28;20042;-83
2021/09/16 08:48:06;;;;;;;9.20;5.97;;;19.30;77.30;;;;;;4984024;28;20027;-83
2021/09/16 08:50:33;;;;;;;7.13;6.45;;;19.40;77.30;;;;;;4987369;28;20092;-82
2021/09/16 08:52:59;;;;;;;7.68;5.57;;;19.40;77.10;;;;;;4977297;28;20033;-83
2021/09/16 08:55:26;;;;;;;6.75;5.85;;;19.50;77.60;;;;;;4989449;28;20508;-83
2021/09/16 08:58:04;;;;;;;5.65;5.15;;;19.60;77.10;;;;;;4985786;28;20037;-83
2021/09/16 09:00:32;;;;;;;7.05;6.10;;;19.70;77.00;;;;;;4986229;28;20048;-82
2021/09/16 09:02:58;;;;;;;10.00;6.10;;;19.80;77.00;;;;;;4961896;28;20029;-82
2021/09/16 09:05:27;;;;;;;6.53;5.60;;;20.00;77.00;;;;;;4972974;28;20045;-83
2021/09/16 09:07:56;;;;;;;5.63;5.05;;;20.10;76.90;;;;;;4985525;28;20120;-84
2021/09/16 09:10:36;;;;;;;5.75;5.30;;;20.20;76.80;;;;;;4969287;28;20281;-83
2021/09/16 09:13:04;;;;;;;5.82;5.00;;;20.20;76.50;;;;;;4974315;28;20039;-85
2021/09/16 09:15:31;;;;;;;5.88;4.82;;;20.40;76.70;;;;;;4985542;28;20031;-83
2021/09/16 09:18:12;;;;;;;6.68;5.47;;;20.50;76.60;;;;;;4992118;28;20442;-85
2021/09/16 09:21:07;;;;;;;6.28;4.80;;;20.60;76.40;;;;;;4986741;28;20026;-82
2021/09/16 09:23:36;;;;;;;7.55;5.07;;;20.80;76.30;;;;;;4981995;28;20044;-85
2021/09/16 09:26:25;;;;;;;4.45;4.05;;;21.00;76.20;;;;;;4989127;28;20125;-83
2021/09/16 09:28:55;;;;;;;4.82;3.70;;;21.10;76.00;;;;;;4972698;28;20049;-84
2021/09/16 09:31:25;;;;;;;4.22;3.83;;;21.10;75.80;;;;;;4989391;28;20057;-84
2021/09/16 09:33:52;;;;;;;4.03;3.60;;;21.10;75.70;;;;;;4974159;28;20109;-83
2021/09/16 09:36:20;;;;;;;5.40;3.72;;;21.10;75.60;;;;;;4986081;28;20100;-84
2021/09/16 09:39:07;;;;;;;4.38;3.75;;;21.10;75.60;;;;;;4985931;28;20039;-84
2021/09/16 09:41:35;;;;;;;5.68;3.70;;;21.00;75.30;;;;;;4969317;28;20050;-84
2021/09/16 09:44:13;;;;;;;3.95;3.38;;;21.00;75.30;;;;;;4953629;28;20042;-85
2021/09/16 09:46:50;;;;;;;3.50;3.20;;;21.00;75.30;;;;;;4985350;28;20843;-85
2021/09/16 09:49:20;;;;;;;3.60;3.30;;;21.00;75.10;;;;;;4972907;28;20033;-84
2021/09/16 09:51:51;;;;;;;3.47;3.17;;;21.00;75.10;;;;;;4986200;28;20026;-84
2021/09/16 09:54:20;;;;;;;4.13;3.47;;;21.00;75.20;;;;;;4954418;28;20426;-83
2021/09/16 09:57:11;;;;;;;4.30;3.13;;;20.90;74.90;;;;;;4985819;28;20093;-85
2021/09/16 10:00:07;;;;;;;4.32;3.53;;;20.90;74.80;;;;;;4991285;28;20334;-85
2021/09/16 10:02:39;;;;;;;2.67;2.47;;;20.90;74.60;;;;;;4987122;28;20580;-85
2021/09/16 10:05:22;;;;;;;4.25;2.90;;;20.80;74.50;;;;;;4986226;28;20089;-86
2021/09/16 10:07:51;;;;;;;3.10;2.10;;;20.80;74.40;;;;;;4967774;28;21238;-85
2021/09/16 10:10:18;;;;;;;2.30;2.15;;;20.80;74.40;;;;;;4978594;28;20046;-85
2021/09/16 10:12:46;;;;;;;3.30;2.80;;;20.80;74.40;;;;;;4999024;28;20097;-86
2021/09/16 10:15:15;;;;;;;3.15;2.28;;;20.80;74.30;;;;;;5013298;28;20044;-84
2021/09/16 10:17:42;;;;;;;2.70;2.50;;;20.80;74.20;;;;;;4991911;28;20019;-84
2021/09/16 10:20:14;;;;;;;2.97;2.63;;;20.80;74.10;;;;;;4973910;28;20045;-86
2021/09/16 10:22:41;;;;;;;3.10;2.80;;;20.80;74.20;;;;;;4985101;28;20119;-83
2021/09/16 10:25:08;;;;;;;3.05;2.75;;;20.80;74.20;;;;;;4985480;28;20030;-82
2021/09/16 10:27:36;;;;;;;4.07;2.88;;;20.80;74.20;;;;;;5001798;28;20034;-80
2021/09/16 10:30:23;;;;;;;5.00;2.55;;;20.90;74.30;;;;;;4997943;28;20050;-79
2021/09/16 10:33:13;;;;;;;7.25;3.03;;;21.00;74.60;;;;;;4993263;28;20105;-79
2021/09/16 10:35:43;;;;;;;4.80;2.97;;;21.00;74.80;;;;;;5025365;28;20045;-80
2021/09/16 10:38:30;;;;;;;13.23;4.95;;;21.00;75.00;;;;;;5021638;28;20046;-79
2021/09/16 10:41:18;;;;;;;13.93;5.20;;;21.10;75.50;;;;;;4990639;28;20038;-79
2021/09/16 10:44:09;;;;;;;10.88;4.50;;;21.20;75.90;;;;;;4989236;28;20034;-80
2021/09/16 10:46:40;;;;;;;12.18;4.15;;;21.30;75.90;;;;;;4985940;28;20057;-80
2021/09/16 10:49:28;;;;;;;7.38;3.55;;;21.50;76.00;;;;;;5030786;28;20041;-80
2021/09/16 10:51:57;;;;;;;4.57;2.53;;;21.60;75.70;;;;;;5016033;28;20115;-83
2021/09/16 10:54:29;;;;;;;3.35;2.10;;;21.70;75.10;;;;;;4996836;28;20030;-82
2021/09/16 10:57:04;;;;;;;5.10;2.60;;;21.80;74.60;;;;;;4996710;28;20047;-81
2021/09/16 10:59:51;;;;;;;3.08;2.78;;;21.80;73.80;;;;;;5012498;28;20369;-83
2021/09/16 11:02:30;;;;;;;2.75;1.90;;;21.80;73.60;;;;;;4997001;28;20049;-81
2021/09/16 11:04:57;;;;;;;2.40;1.95;;;21.80;73.50;;;;;;5006975;28;20105;-82
2021/09/16 11:07:32;;;;;;;2.20;1.90;;;21.70;73.30;;;;;;5010634;28;20047;-83
2021/09/16 11:10:13;;;;;;;3.05;2.20;;;21.70;73.20;;;;;;5011083;28;20156;-80
2021/09/16 11:12:47;;;;;;;3.40;1.65;;;21.70;73.10;;;;;;5013525;28;20045;-78
2021/09/16 11:15:16;;;;;;;1.77;1.65;;;21.70;73.10;;;;;;5024208;28;20034;-80
2021/09/16 11:17:44;;;;;;;2.28;1.90;;;21.70;72.90;;;;;;5008909;28;20089;-81
2021/09/16 11:20:13;;;;;;;2.15;1.83;;;21.70;72.70;;;;;;4993003;28;20112;-83
2021/09/16 11:22:40;;;;;;;1.92;1.65;;;21.70;72.40;;;;;;5015345;28;20040;-84
2021/09/16 11:25:07;;;;;;;2.15;1.88;;;21.60;72.00;;;;;;5032782;28;20101;-81
2021/09/16 11:27:39;;;;;;;2.90;1.77;;;21.60;71.80;;;;;;5013796;28;20022;-81
2021/09/16 11:30:17;;;;;;;1.60;1.42;;;21.60;71.50;;;;;;5011069;28;20040;-82
2021/09/16 11:32:44;;;;;;;1.38;1.20;;;21.60;71.40;;;;;;5025109;28;20057;-82
2021/09/16 11:35:21;;;;;;;2.22;1.40;;;21.60;71.20;;;;;;5027228;28;20044;-81
2021/09/16 11:37:49;;;;;;;1.30;1.20;;;21.60;70.80;;;;;;5025634;28;20054;-81
2021/09/16 11:40:24;;;;;;;2.28;1.45;;;21.60;70.60;;;;;;5007673;28;20026;-81
2021/09/16 11:42:54;;;;;;;1.25;1.15;;;21.50;70.20;;;;;;5024833;28;20030;-82
2021/09/16 11:45:28;;;;;;;1.35;1.20;;;21.50;70.00;;;;;;5027327;28;20587;-82
2021/09/16 11:48:07;;;;;;;1.55;1.38;;;21.50;69.60;;;;;;5010345;28;20037;-83
2021/09/16 11:50:40;;;;;;;1.65;1.38;;;21.50;69.40;;;;;;5027920;28;20041;-83
2021/09/16 11:53:18;;;;;;;1.13;1.00;;;21.50;69.30;;;;;;5006046;28;20030;-82
2021/09/16 11:55:50;;;;;;;1.40;1.25;;;21.50;69.10;;;;;;4999296;28;20021;-86
2021/09/16 11:58:16;;;;;;;1.55;1.20;;;21.50;68.80;;;;;;4994281;28;20524;-83
2021/09/16 12:00:42;;;;;;;1.20;1.13;;;21.50;68.80;;;;;;4989703;28;20031;-83
2021/09/16 12:03:11;;;;;;;1.20;1.00;;;21.50;68.60;;;;;;4975938;28;20075;-82
2021/09/16 12:05:41;;;;;;;1.42;0.82;;;21.50;68.30;;;;;;4972305;28;20026;-83
2021/09/16 12:08:17;;;;;;;1.52;1.08;;;21.50;68.10;;;;;;4971097;28;20378;-83
2021/09/16 12:10:50;;;;;;;2.15;0.93;;;21.60;68.30;;;;;;4988638;28;20049;-82
2021/09/16 12:13:17;;;;;;;;;;;21.60;68.20;;;;;;4980771;28;20125;-82
2021/09/16 12:15:44;;;;;;;1.63;0.98;;;21.60;68.30;;;;;;5006762;28;19992;-83
2021/09/16 12:18:12;;;;;;;1.88;0.70;;;21.70;68.10;;;;;;5007478;28;20029;-82
2021/09/16 12:20:40;;;;;;;1.00;0.73;;;21.70;67.80;;;;;;4974211;28;20115;-80
2021/09/16 12:23:10;;;;;;;2.13;0.82;;;21.70;67.60;;;;;;4989106;28;20029;-81
2021/09/16 12:25:56;;;;;;;1.33;0.90;;;21.70;67.30;;;;;;4990967;28;20498;-80
2021/09/16 12:28:24;;;;;;;1.35;0.80;;;21.70;67.00;;;;;;4989738;28;20022;-83
2021/09/16 12:30:50;;;;;;;1.65;0.90;;;21.80;67.00;;;;;;4999510;28;20046;-82
2021/09/16 12:33:31;;;;;;;1.77;0.90;;;21.80;66.80;;;;;;4963742;28;20108;-79
2021/09/16 12:36:17;;;;;;;1.77;0.80;;;21.80;66.40;;;;;;4990639;28;20437;-79
2021/09/16 12:38:47;;;;;;;2.47;0.88;;;21.80;66.40;;;;;;4998077;28;20042;-79
2021/09/16 12:41:24;;;;;;;2.17;1.10;;;21.80;66.40;;;;;;4970470;28;20026;-78
2021/09/16 12:44:09;;;;;;;1.70;0.65;;;21.80;66.20;;;;;;4983438;28;20037;-79
2021/09/16 12:46:40;;;;;;;1.85;0.70;;;21.90;66.40;;;;;;4989525;28;20061;-79
2021/09/16 12:49:06;;;;;;;2.05;0.82;;;21.90;66.30;;;;;;4977251;28;20039;-80